Latest Weather Observations for Sydney Harbour

IDN60801

Issued at 7:03 pm EST Saturday 30 July 2016 (issued every 30 minutes, with the page automatically refreshed every 10 minutes)

About weather observations | Map of weather stations | Latest weather observations for NSW | Other Formats
Station Details ID: 066196 Name: WEDDING CAKE WEST Lat: -33.84 Lon: 151.26 Height: 6.0 m
Data from the previous 72 hours. | See also: Recent months at Sydney Harbour
Date/Time
EST
Temp
°C
App
Temp
°C
Dew
Point
°C
Rel
Hum
%
Delta-T
°C
Wind Press
QNH
hPa
Press
MSL
hPa
Rain since
9am
mm
Dir  Spd
km/h
Gust
km/h
Spd
kts
Gust
kts
30/07:00pm 15.9 - - - - N 6 7 3 4 - - -
30/06:30pm 16.6 - - - - ENE 9 13 5 7 - - -
30/06:00pm 16.5 - - - - ENE 13 15 7 8 - - -
30/05:30pm 16.6 - - - - ESE 7 9 4 5 - - -
30/05:00pm 16.6 - - - - ESE 9 11 5 6 - - -
30/04:30pm 17.6 - - - - SE 11 13 6 7 - - -
30/04:00pm 17.4 - - - - SE 13 17 7 9 - - -
30/03:30pm 17.0 - - - - S 13 15 7 8 - - -
30/03:00pm 16.6 - - - - S 17 19 9 10 - - -
30/02:30pm 17.3 - - - - SSE 15 20 8 11 - - -
30/02:00pm 16.9 - - - - SSE 15 19 8 10 - - -
30/01:30pm 17.1 - - - - S 15 20 8 11 - - -
30/01:00pm 16.3 - - - - WSW 13 19 7 10 - - -
30/12:30pm 15.7 - - - - WSW 17 20 9 11 - - -
30/12:00pm 15.0 - - - - W 19 24 10 13 - - -
30/11:30am 14.3 - - - - W 17 24 9 13 - - -
30/11:00am 13.4 - - - - WSW 17 24 9 13 - - -
30/10:30am 12.7 - - - - WSW 19 26 10 14 - - -
30/10:00am 12.2 - - - - W 20 26 11 14 - - -
30/09:30am 11.3 - - - - WSW 24 32 13 17 - - -
30/09:00am 11.0 - - - - W 28 35 15 19 - - -
30/08:30am 10.8 - - - - W 26 35 14 19 - - -
30/08:00am 10.5 - - - - W 28 35 15 19 - - -
30/07:30am 10.2 - - - - W 30 35 16 19 - - -
30/07:00am 10.2 - - - - W 28 35 15 19 - - -
30/06:30am 10.4 - - - - W 28 32 15 17 - - -
30/06:00am 10.2 - - - - W 24 32 13 17 - - -
30/05:30am 10.8 - - - - W 26 33 14 18 - - -
30/05:00am 10.7 - - - - W 28 33 15 18 - - -
30/04:30am 10.7 - - - - W 24 32 13 17 - - -
30/04:00am 10.9 - - - - W 24 32 13 17 - - -
30/03:30am 10.8 - - - - W 30 37 16 20 - - -
30/03:00am 11.0 - - - - W 28 37 15 20 - - -
30/02:30am 11.0 - - - - WSW 26 32 14 17 - - -
30/02:00am 11.0 - - - - W 24 33 13 18 - - -
30/01:30am 11.1 - - - - WSW 28 33 15 18 - - -
30/01:00am 11.3 - - - - WSW 32 44 17 24 - - -
30/12:30am 11.4 - - - - WSW 28 35 15 19 - - -
30/12:00am 11.6 - - - - WSW 30 37 16 20 - - -
 
Date/Time
EST
Temp
°C
App
Temp
°C
Dew
Point
°C
Rel
Hum
%
Delta-T
°C
Wind Press
QNH
hPa
Press
MSL
hPa
Rain since
9am
mm
Dir  Spd
km/h
Gust
km/h
Spd
kts
Gust
kts
29/11:30pm 11.8 - - - - WSW 30 39 16 21 - - -
29/11:03pm 12.3 - - - - WSW 30 54 16 29 - - -
29/11:00pm 12.1 - - - - WSW 28 39 15 21 - - -
29/10:30pm 12.0 - - - - WSW 26 33 14 18 - - -
29/10:00pm 12.3 - - - - WSW 30 37 16 20 - - -
29/09:30pm 12.7 - - - - WSW 26 35 14 19 - - -
29/09:00pm 13.1 - - - - WSW 28 39 15 21 - - -
29/08:30pm 13.5 - - - - WSW 30 48 16 26 - - -
29/08:09pm 13.9 - - - - WSW 32 50 17 27 - - -
29/08:00pm 14.0 - - - - WSW 37 48 20 26 - - -
29/07:30pm 14.5 - - - - WSW 33 43 18 23 - - -
29/07:00pm 14.7 - - - - SW 28 33 15 18 - - -
29/06:30pm 15.2 - - - - WSW 30 35 16 19 - - -
29/06:00pm 15.9 - - - - WSW 28 44 15 24 - - -
29/05:30pm 16.3 - - - - WSW 20 28 11 15 - - -
29/05:00pm 17.0 - - - - WSW 22 30 12 16 - - -
29/04:30pm 17.6 - - - - WSW 17 26 9 14 - - -
29/04:00pm 17.6 - - - - W 9 17 5 9 - - -
29/03:30pm 17.4 - - - - WNW 11 17 6 9 - - -
29/03:00pm 15.6 - - - - NNE 11 15 6 8 - - -
29/02:30pm 15.5 - - - - NE 9 11 5 6 - - -
29/02:00pm 16.1 - - - - NW 9 20 5 11 - - -
29/01:30pm 14.5 - - - - SW 13 17 7 9 - - -
29/01:00pm 14.0 - - - - WSW 19 22 10 12 - - -
29/12:30pm 13.3 - - - - WSW 20 24 11 13 - - -
29/12:00pm 12.8 - - - - WSW 17 20 9 11 - - -
29/11:30am 12.4 - - - - WSW 17 20 9 11 - - -
29/11:00am 11.8 - - - - WSW 20 26 11 14 - - -
29/10:30am 11.5 - - - - W 19 24 10 13 - - -
29/10:00am 10.9 - - - - W 13 22 7 12 - - -
29/09:30am 10.3 - - - - W 24 30 13 16 - - -
29/09:00am 10.0 - - - - W 26 32 14 17 - - -
29/08:30am 9.5 - - - - WSW 22 28 12 15 - - -
29/08:00am 9.1 - - - - WSW 24 35 13 19 - - -
29/07:30am 9.0 - - - - WSW 22 30 12 16 - - -
29/07:00am 8.9 - - - - W 28 33 15 18 - - -
29/06:30am 9.1 - - - - WSW 22 30 12 16 - - -
29/06:00am 9.0 - - - - W 17 24 9 13 - - -
29/05:30am 9.5 - - - - WSW 15 22 8 12 - - -
29/05:00am 9.7 - - - - W 13 20 7 11 - - -
29/04:30am 9.6 - - - - W 19 24 10 13 - - -
29/04:00am 9.8 - - - - WSW 24 32 13 17 - - -
29/03:30am 9.9 - - - - W 26 35 14 19 - - -
29/03:00am 10.4 - - - - WSW 26 35 14 19 - - -
29/02:30am 10.8 - - - - WSW 32 41 17 22 - - -
29/02:00am 10.8 - - - - W 28 35 15 19 - - -
29/01:30am 10.8 - - - - W 22 30 12 16 - - -
29/01:00am 11.0 - - - - WSW 32 37 17 20 - - -
29/12:30am 11.2 - - - - WSW 30 37 16 20 - - -
29/12:00am 11.3 - - - - W 26 32 14 17 - - -
 
Date/Time
EST
Temp
°C
App
Temp
°C
Dew
Point
°C
Rel
Hum
%
Delta-T
°C
Wind Press
QNH
hPa
Press
MSL
hPa
Rain since
9am
mm
Dir  Spd
km/h
Gust
km/h
Spd
kts
Gust
kts
28/11:30pm 11.6 - - - - W 24 33 13 18 - - -
28/11:00pm 11.8 - - - - WSW 24 32 13 17 - - -
28/10:30pm 12.0 - - - - WSW 20 30 11 16 - - -
28/10:00pm 12.4 - - - - WSW 26 39 14 21 - - -
28/09:30pm 12.9 - - - - WSW 30 41 16 22 - - -
28/09:00pm 13.3 - - - - WSW 39 57 21 31 - - -
28/08:39pm 13.9 - - - - WSW 28 46 15 25 - - -
28/08:30pm 13.5 - - - - W 24 33 13 18 - - -
28/08:00pm 13.7 - - - - W 24 30 13 16 - - -
28/07:30pm 14.0 - - - - WSW 26 37 14 20 - - -
28/07:00pm 14.6 - - - - WSW 24 33 13 18 - - -
28/06:30pm 15.1 - - - - WSW 26 33 14 18 - - -
28/06:00pm 16.0 - - - - WSW 24 32 13 17 - - -
28/05:30pm 17.0 - - - - WSW 20 35 11 19 - - -
28/05:00pm 17.5 - - - - WNW 13 15 7 8 - - -
28/04:30pm 18.1 - - - - WNW 15 22 8 12 - - -
28/04:00pm 18.2 - - - - WNW 15 20 8 11 - - -
28/03:30pm 17.8 - - - - WSW 13 15 7 8 - - -
28/03:00pm 17.6 - - - - W 15 22 8 12 - - -
28/02:30pm 17.0 - - - - W 15 20 8 11 - - -
28/02:00pm 16.4 - - - - WNW 9 15 5 8 - - -
28/01:30pm 16.7 - - - - NW 13 20 7 11 - - -
28/01:00pm 16.1 - - - - WNW 11 17 6 9 - - -
28/12:30pm 15.0 - - - - SW 13 17 7 9 - - -
28/12:00pm 14.6 - - - - WSW 19 20 10 11 - - -
28/11:30am 14.4 - - - - W 17 20 9 11 - - -
28/11:00am 13.6 - - - - WSW 19 26 10 14 - - -
28/10:30am 13.0 - - - - W 24 28 13 15 - - -
28/10:00am 12.6 - - - - WSW 22 28 12 15 - - -
28/09:30am 12.2 - - - - WSW 22 28 12 15 - - -
28/09:00am 11.3 - - - - WSW 24 32 13 17 - - -
28/08:30am 10.9 - - - - WSW 24 33 13 18 - - -
28/08:00am 10.6 - - - - W 24 32 13 17 - - -
28/07:30am 10.7 - - - - WSW 22 28 12 15 - - -
28/07:00am 11.7 - - - - WSW 17 20 9 11 - - -
28/06:30am 12.1 - - - - WSW 19 24 10 13 - - -
28/06:00am 12.3 - - - - W 19 28 10 15 - - -
28/05:30am 11.7 - - - - W 19 24 10 13 - - -
28/05:00am 12.3 - - - - W 20 26 11 14 - - -
28/04:30am 12.6 - - - - W 22 30 12 16 - - -
28/04:00am 12.6 - - - - W 26 32 14 17 - - -
28/03:30am 12.6 - - - - W 24 32 13 17 - - -
28/03:00am 12.5 - - - - W 22 30 12 16 - - -
28/02:30am 12.5 - - - - W 22 28 12 15 - - -
28/02:00am 12.9 - - - - W 28 37 15 20 - - -
28/01:30am 12.9 - - - - W 30 39 16 21 - - -
28/01:00am 13.0 - - - - WSW 28 41 15 22 - - -
28/12:30am 13.0 - - - - WSW 28 35 15 19 - - -
28/12:00am 13.0 - - - - WSW 30 39 16 21 - - -
 
Date/Time
EST
Temp
°C
App
Temp
°C
Dew
Point
°C
Rel
Hum
%
Delta-T
°C
Wind Press
QNH
hPa
Press
MSL
hPa
Rain since
9am
mm
Dir  Spd
km/h
Gust
km/h
Spd
kts
Gust
kts
27/11:30pm 13.2 - - - - W 28 39 15 21 - - -
27/11:00pm 13.4 - - - - W 32 44 17 24 - - -
27/10:30pm 13.3 - - - - W 24 33 13 18 - - -
27/10:00pm 13.6 - - - - WSW 17 26 9 14 - - -
27/09:30pm 13.6 - - - - W 19 26 10 14 - - -
27/09:00pm 14.0 - - - - W 20 28 11 15 - - -
27/08:30pm 14.3 - - - - W 22 28 12 15 - - -
27/08:00pm 14.6 - - - - W 26 35 14 19 - - -
27/07:30pm 15.1 - - - - W 24 33 13 18 - - -

Other Formats:

Comma delimited format used in spreadsheet applications
http://www.bom.gov.au/fwo/IDN60801/IDN60801.95766.axf

JavaScript Object Notation format (JSON) in row-major order
http://www.bom.gov.au/fwo/IDN60801/IDN60801.95766.json